Time;durP1;ratioP1;P1;durP2;ratioP2;P2;SDS_P1;SDS_P2;PMS_P1;PMS_P2;Temp;Humidity;BMP_temperature;BMP_pressure;BME280_temperature;BME280_humidity;BME280_pressure;Samples;Min_cycle;Max_cycle;Signal;HPM_P1;HPM_P2
2021/11/17 02:27:11;;;;;;;0.20;0.20;;;;;;;2.66;100.00;101184.34;5006213;28;20054;-81
2021/11/17 02:30:08;;;;;;;0.22;0.22;;;;;;;2.63;100.00;101180.22;5013452;28;22156;-81
2021/11/17 02:32:54;;;;;;;0.30;0.30;;;;;;;2.60;100.00;101177.16;5008700;28;20061;-81
2021/11/17 02:35:43;;;;;;;0.20;0.20;;;;;;;2.62;100.00;101178.56;5012024;28;20061;-81
2021/11/17 02:38:30;;;;;;;0.20;0.20;;;;;;;2.58;100.00;101174.66;5002036;28;20058;-81
2021/11/17 02:41:20;;;;;;;0.25;0.25;;;;;;;2.63;100.00;101179.41;5006160;28;20060;-81
2021/11/17 02:44:07;;;;;;;0.15;0.15;;;;;;;2.57;100.00;101173.03;4990164;28;20038;-80
2021/11/17 02:46:59;;;;;;;0.20;0.20;;;;;;;2.45;100.00;101166.66;5021987;28;20058;-81
2021/11/17 02:49:47;;;;;;;0.20;0.20;;;;;;;2.50;100.00;101167.66;5008276;28;22364;-82
2021/11/17 02:52:38;;;;;;;0.20;0.20;;;;;;;2.53;100.00;101161.06;5025285;28;20064;-81
2021/11/17 02:55:27;;;;;;;0.20;0.20;;;;;;;2.53;100.00;101169.09;5006723;28;20426;-83
2021/11/17 02:58:19;;;;;;;0.28;0.28;;;;;;;2.48;100.00;101163.53;5004952;28;20042;-82
2021/11/17 03:01:19;;;;;;;0.20;0.20;;;;;;;2.48;100.00;101160.84;5004788;28;20058;-81
2021/11/17 03:04:06;;;;;;;0.20;0.20;;;;;;;2.52;100.00;101167.44;5003894;28;20046;-81
2021/11/17 03:06:51;;;;;;;0.25;0.25;;;;;;;2.52;100.00;101164.75;5023739;28;20511;-80
2021/11/17 03:09:45;;;;;;;0.20;0.20;;;;;;;2.42;100.00;101173.28;4994860;28;20053;-81
2021/11/17 03:12:36;;;;;;;0.20;0.20;;;;;;;2.45;100.00;101159.41;5005723;28;20057;-81
2021/11/17 03:15:33;;;;;;;0.20;0.20;;;;;;;2.46;100.00;101161.06;5019692;28;20473;-82
2021/11/17 03:18:23;;;;;;;0.20;0.20;;;;;;;2.36;100.00;101158.84;5018604;28;20053;-81
2021/11/17 03:21:18;;;;;;;0.20;0.20;;;;;;;2.32;100.00;101154.94;5001962;28;20485;-82
2021/11/17 03:24:04;;;;;;;0.20;0.20;;;;;;;2.34;100.00;101149.34;5033360;28;20046;-82
2021/11/17 03:26:58;;;;;;;0.20;0.20;;;;;;;2.26;100.00;101152.28;5004687;28;20054;-81
2021/11/17 03:30:02;;;;;;;0.13;0.13;;;;;;;2.26;100.00;101155.78;5007498;28;20054;-81
2021/11/17 03:32:52;;;;;;;0.20;0.20;;;;;;;2.28;100.00;101155.56;5004364;28;20057;-81
2021/11/17 03:35:46;;;;;;;0.28;0.28;;;;;;;2.20;100.00;101148.59;5007535;28;20054;-81
2021/11/17 03:38:58;;;;;;;0.20;0.20;;;;;;;2.27;100.00;101153.94;4999191;28;20045;-81
2021/11/17 03:41:54;;;;;;;0.20;0.20;;;;;;;2.27;100.00;101152.06;4994554;28;20050;-81
2021/11/17 03:44:55;;;;;;;0.20;0.20;;;;;;;2.18;100.00;101145.28;5003556;28;20042;-82
2021/11/17 03:47:41;;;;;;;0.10;0.10;;;;;;;2.31;100.00;101149.78;5001861;28;20038;-82
2021/11/17 03:50:27;;;;;;;0.20;0.20;;;;;;;2.36;100.00;101141.88;5003109;28;20046;-81
2021/11/17 03:53:25;;;;;;;0.20;0.20;;;;;;;2.35;100.00;101146.44;5021909;28;21851;-81
2021/11/17 03:56:12;;;;;;;0.20;0.20;;;;;;;2.34;100.00;101147.47;5002444;28;20073;-81
2021/11/17 03:58:59;;;;;;;0.20;0.20;;;;;;;2.33;100.00;101142.31;4996444;28;20054;-81
2021/11/17 04:01:47;;;;;;;0.25;0.25;;;;;;;2.29;100.00;101143.78;5006036;28;20049;-81
2021/11/17 04:04:41;;;;;;;0.20;0.20;;;;;;;2.36;100.00;101140.03;5002458;28;20057;-81
2021/11/17 04:07:30;;;;;;;0.20;0.20;;;;;;;2.27;100.00;101130.56;5004720;28;20042;-81
2021/11/17 04:13:10;;;;;;;0.20;0.20;;;;;;;2.35;100.00;101142.94;5078613;27;20406;-81
2021/11/17 04:15:55;;;;;;;0.20;0.20;;;;;;;2.35;100.00;101138.38;5107791;28;20059;-81
2021/11/17 04:18:35;;;;;;;0.20;0.20;;;;;;;2.26;100.00;101133.47;5069849;28;20033;-83
2021/11/17 04:21:32;;;;;;;0.20;0.20;;;;;;;2.34;100.00;101149.34;5071309;28;20047;-82
2021/11/17 04:24:23;;;;;;;0.20;0.20;;;;;;;2.27;100.00;101138.63;5086729;28;20499;-79
2021/11/17 04:26:59;;;;;;;0.20;0.20;;;;;;;2.33;100.00;101140.44;5068044;28;20077;-82
2021/11/17 04:30:02;;;;;;;0.20;0.20;;;;;;;2.37;100.00;101135.50;5072706;28;20714;-82
2021/11/17 04:32:51;;;;;;;0.20;0.20;;;;;;;2.29;100.00;101133.03;5074389;28;20114;-84
2021/11/17 04:35:49;;;;;;;0.20;0.20;;;;;;;2.21;100.00;101120.69;5071434;28;20041;-82
2021/11/17 04:38:50;;;;;;;0.30;0.30;;;;;;;2.24;100.00;101133.69;5066807;28;20060;-82
2021/11/17 04:42:05;;;;;;;0.20;0.20;;;;;;;2.28;100.00;101136.75;5055108;28;20044;-82
2021/11/17 04:45:10;;;;;;;0.13;0.13;;;;;;;2.23;100.00;101132.03;5053840;28;20053;-81
2021/11/17 04:47:56;;;;;;;0.20;0.20;;;;;;;2.36;100.00;101133.84;5071066;28;20055;-81
2021/11/17 04:50:43;;;;;;;0.30;0.30;;;;;;;2.28;100.00;101132.22;5064474;28;20053;-81
2021/11/17 04:53:31;;;;;;;0.20;0.20;;;;;;;2.32;100.00;101146.88;5065684;28;20052;-81
2021/11/17 04:56:22;;;;;;;0.20;0.20;;;;;;;2.28;100.00;101139.44;5067427;28;20070;-81
2021/11/17 04:59:20;;;;;;;0.20;0.20;;;;;;;2.23;100.00;101132.03;5066828;28;20512;-83
2021/11/17 05:02:14;;;;;;;0.20;0.20;;;;;;;2.26;100.00;101131.59;5064807;28;20056;-82
2021/11/17 05:05:04;;;;;;;0.20;0.20;;;;;;;2.25;100.00;101134.50;5064079;28;20389;-81
2021/11/17 05:07:46;;;;;;;0.20;0.20;;;;;;;2.27;100.00;101129.75;5064618;28;20045;-81
2021/11/17 05:10:27;;;;;;;0.30;0.30;;;;;;;2.29;100.00;101119.63;5063879;28;20057;-80
2021/11/17 05:13:09;;;;;;;0.20;0.20;;;;;;;2.31;100.00;101118.38;5066405;28;20048;-81
2021/11/17 05:15:43;;;;;;;;;;;;;;;2.38;100.00;101127.22;5057124;28;20484;-81
2021/11/17 05:18:25;;;;;;;0.20;0.20;;;;;;;2.36;100.00;101120.41;5065281;28;19920;-81
2021/11/17 05:21:15;;;;;;;0.20;0.20;;;;;;;2.34;100.00;101119.81;5062254;28;20056;-81
2021/11/17 05:24:04;;;;;;;0.20;0.20;;;;;;;2.33;100.00;101113.59;5055188;28;20064;-81
2021/11/17 05:26:45;;;;;;;0.13;0.13;;;;;;;2.30;100.00;101113.22;5052496;28;20041;-81
2021/11/17 05:29:37;;;;;;;0.20;0.20;;;;;;;2.35;100.00;101116.91;5051090;28;20049;-81
2021/11/17 05:32:26;;;;;;;0.25;0.25;;;;;;;2.37;100.00;101114.81;5052447;28;20049;-82
2021/11/17 05:35:18;;;;;;;0.20;0.20;;;;;;;2.38;100.00;101121.03;5054662;28;20036;-80
2021/11/17 05:38:01;;;;;;;0.20;0.20;;;;;;;2.36;100.00;101106.97;5054913;28;20049;-80
2021/11/17 05:40:58;;;;;;;0.20;0.20;;;;;;;2.34;100.00;101114.44;5044440;28;20049;-81
2021/11/17 05:43:44;;;;;;;0.20;0.20;;;;;;;2.35;100.00;101118.78;5046504;28;20477;-82
2021/11/17 05:46:29;;;;;;;0.13;0.13;;;;;;;2.33;100.00;101112.78;5047058;28;20417;-81
2021/11/17 05:49:14;;;;;;;0.20;0.20;;;;;;;2.42;100.00;101107.97;5052488;28;20041;-81
2021/11/17 05:52:17;;;;;;;0.20;0.20;;;;;;;2.35;100.00;101100.78;5052364;28;20057;-81
2021/11/17 05:55:09;;;;;;;0.20;0.20;;;;;;;2.38;100.00;101111.09;5053197;28;20435;-82
2021/11/17 05:57:53;;;;;;;0.20;0.20;;;;;;;2.40;100.00;101115.44;5057155;28;20045;-81
2021/11/17 06:00:40;;;;;;;0.25;0.25;;;;;;;2.38;100.00;101104.91;5058243;28;20512;-81
2021/11/17 06:03:30;;;;;;;0.20;0.20;;;;;;;2.38;100.00;101115.66;5050131;28;20053;-82
2021/11/17 06:06:03;;;;;;;0.20;0.20;;;;;;;2.47;100.00;101116.22;5046063;28;20053;-81
2021/11/17 06:08:36;;;;;;;0.20;0.20;;;;;;;2.46;100.00;101118.09;5053033;28;20033;-81
2021/11/17 06:11:10;;;;;;;0.30;0.30;;;;;;;2.42;100.00;101118.72;5064597;28;20489;-81
2021/11/17 06:13:44;;;;;;;0.20;0.20;;;;;;;2.46;100.00;101112.72;5060290;28;20056;-81
2021/11/17 06:16:17;;;;;;;0.22;0.22;;;;;;;2.42;100.00;101116.03;5067940;28;20048;-81
2021/11/17 06:18:50;;;;;;;0.20;0.20;;;;;;;2.47;100.00;101118.91;5054089;28;20041;-81
2021/11/17 06:21:24;;;;;;;0.20;0.20;;;;;;;2.41;100.00;101117.91;5054560;28;20051;-81
2021/11/17 06:24:00;;;;;;;0.20;0.20;;;;;;;2.54;100.00;101117.00;5074482;28;22063;-81
2021/11/17 06:26:32;;;;;;;0.20;0.20;;;;;;;2.48;100.00;101110.63;5053674;28;20048;-81
2021/11/17 06:29:11;;;;;;;0.20;0.20;;;;;;;2.59;100.00;101108.31;5056762;28;20049;-81
2021/11/17 06:31:45;;;;;;;0.20;0.20;;;;;;;2.44;100.00;101101.34;5052821;28;20053;-81
2021/11/17 06:34:32;;;;;;;0.20;0.20;;;;;;;2.42;100.00;101103.44;5051527;28;20048;-80
2021/11/17 06:37:06;;;;;;;;;;;;;;;2.46;100.00;101117.25;5052109;28;20056;-81
2021/11/17 06:39:41;;;;;;;0.25;0.25;;;;;;;2.42;100.00;101116.88;5048073;28;19924;-80
2021/11/17 06:42:18;;;;;;;0.10;0.10;;;;;;;2.48;100.00;101112.50;5050710;28;20061;-80
2021/11/17 06:44:53;;;;;;;0.22;0.22;;;;;;;2.45;100.00;101107.56;5056440;28;20052;-80
2021/11/17 06:47:26;;;;;;;0.10;0.10;;;;;;;2.47;100.00;101116.22;5047992;28;20056;-80
2021/11/17 06:49:59;;;;;;;0.20;0.20;;;;;;;2.50;100.00;101116.63;5049757;28;20056;-80
2021/11/17 06:52:33;;;;;;;0.20;0.20;;;;;;;2.46;100.00;101119.94;5049279;28;20480;-83
2021/11/17 06:55:07;;;;;;;0.20;0.20;;;;;;;2.45;100.00;101121.00;5048501;28;20052;-81
2021/11/17 06:57:42;;;;;;;0.20;0.20;;;;;;;2.54;100.00;101123.22;5054154;28;20045;-82
2021/11/17 07:00:18;;;;;;;0.20;0.20;;;;;;;2.50;100.00;101113.94;5050308;28;20045;-82
2021/11/17 07:02:51;;;;;;;0.20;0.20;;;;;;;2.39;100.00;101106.56;5048681;28;20385;-82
2021/11/17 07:05:24;;;;;;;0.20;0.20;;;;;;;2.43;100.00;101115.84;5056280;28;20044;-82
2021/11/17 07:07:56;;;;;;;0.15;0.15;;;;;;;2.43;100.00;101104.25;5050364;28;20055;-82
2021/11/17 07:10:31;;;;;;;0.20;0.20;;;;;;;2.45;100.00;101094.13;5042802;28;20052;-81
2021/11/17 07:13:07;;;;;;;0.20;0.20;;;;;;;2.47;100.00;101105.47;5053242;28;20033;-83
2021/11/17 07:15:41;;;;;;;0.13;0.13;;;;;;;2.39;100.00;101095.81;5055450;28;20044;-81
2021/11/17 07:18:09;;;;;;;0.20;0.20;;;;;;;2.43;100.00;101090.81;5053132;28;20417;-82
2021/11/17 07:20:43;;;;;;;0.20;0.20;;;;;;;2.41;100.00;101091.03;5055689;28;20052;-81
2021/11/17 07:23:18;;;;;;;0.20;0.20;;;;;;;2.49;100.00;101084.59;5056908;28;20052;-81
2021/11/17 07:25:46;;;;;;;0.20;0.20;;;;;;;2.42;100.00;101076.59;5051162;28;20059;-81
2021/11/17 07:28:21;;;;;;;0.20;0.20;;;;;;;2.46;100.00;101080.47;5056976;28;20524;-81
2021/11/17 07:30:55;;;;;;;0.30;0.30;;;;;;;2.38;100.00;101078.03;5062123;28;20037;-80
2021/11/17 07:33:24;;;;;;;0.20;0.20;;;;;;;2.41;100.00;101080.28;5051269;28;20048;-81
2021/11/17 07:35:57;;;;;;;0.20;0.20;;;;;;;2.37;100.00;101084.44;5060524;28;20052;-81
2021/11/17 07:38:30;;;;;;;0.20;0.20;;;;;;;2.33;100.00;101078.66;5052245;28;20048;-81
2021/11/17 07:41:03;;;;;;;0.22;0.22;;;;;;;2.24;100.00;101060.34;5051995;28;20039;-81
2021/11/17 07:43:33;;;;;;;0.20;0.20;;;;;;;2.16;100.00;101062.25;5056286;28;20044;-81
2021/11/17 07:46:07;;;;;;;0.20;0.20;;;;;;;2.19;100.00;101063.69;5053820;28;20124;-80
2021/11/17 07:48:40;;;;;;;0.20;0.20;;;;;;;2.21;100.00;101067.00;5047528;28;20041;-80
2021/11/17 07:51:15;;;;;;;0.20;0.20;;;;;;;2.16;100.00;101048.81;5048297;28;20501;-82
2021/11/17 07:53:48;;;;;;;0.20;0.20;;;;;;;2.30;100.00;101059.50;5039872;28;20060;-82
2021/11/17 07:56:21;;;;;;;0.20;0.20;;;;;;;2.41;100.00;101066.06;5044739;28;20057;-83
2021/11/17 07:58:51;;;;;;;0.20;0.20;;;;;;;2.47;100.00;101084.81;5045790;28;20063;-80
2021/11/17 08:01:24;;;;;;;0.20;0.20;;;;;;;2.62;100.00;101081.00;5049492;28;20045;-82
2021/11/17 08:03:53;;;;;;;0.10;0.10;;;;;;;2.64;100.00;101084.31;5045745;28;20045;-82
2021/11/17 08:06:29;;;;;;;0.20;0.20;;;;;;;2.67;100.00;101082.00;5046132;28;20060;-82
2021/11/17 08:09:02;;;;;;;0.20;0.20;;;;;;;2.67;100.00;101071.25;5045238;28;20040;-81
2021/11/17 08:11:36;;;;;;;0.20;0.20;;;;;;;2.78;100.00;101080.47;5041691;28;20044;-82
2021/11/17 08:14:11;;;;;;;0.20;0.20;;;;;;;2.88;100.00;101080.00;5049500;28;20072;-82
2021/11/17 08:16:40;;;;;;;0.20;0.20;;;;;;;2.96;100.00;101081.59;5032736;28;20056;-81
2021/11/17 08:19:08;;;;;;;0.20;0.20;;;;;;;2.99;100.00;101090.03;5043252;28;20045;-81
2021/11/17 08:21:37;;;;;;;0.20;0.20;;;;;;;3.01;100.00;101090.66;5026811;28;20064;-82
2021/11/17 08:24:10;;;;;;;0.22;0.22;;;;;;;3.11;100.00;101087.47;5028876;28;20060;-80
2021/11/17 08:26:44;;;;;;;0.20;0.20;;;;;;;3.11;100.00;101092.00;5031753;28;20051;-81
2021/11/17 08:29:18;;;;;;;0.20;0.20;;;;;;;3.17;100.00;101086.56;5026699;28;20053;-82
2021/11/17 08:31:52;;;;;;;0.20;0.20;;;;;;;3.20;100.00;101079.94;5028000;28;20055;-81
2021/11/17 08:34:25;;;;;;;0.20;0.20;;;;;;;3.26;100.00;101086.28;5027456;28;20053;-81
2021/11/17 08:36:58;;;;;;;0.20;0.20;;;;;;;3.30;100.00;101072.19;5031537;28;20603;-79
2021/11/17 08:39:27;;;;;;;0.20;0.20;;;;;;;3.21;100.00;101076.19;5047510;28;20080;-80
2021/11/17 08:42:00;;;;;;;0.20;0.20;;;;;;;3.36;100.00;101090.13;5034446;28;20059;-79
2021/11/17 08:44:35;;;;;;;0.20;0.20;;;;;;;3.28;100.00;101086.91;5032889;28;20662;-80
2021/11/17 08:47:11;;;;;;;0.20;0.20;;;;;;;3.20;100.00;101067.31;5033836;28;20045;-80
2021/11/17 08:49:39;;;;;;;0.20;0.20;;;;;;;3.30;100.00;101084.81;5032984;28;20053;-81
2021/11/17 08:52:13;;;;;;;0.20;0.20;;;;;;;3.41;100.00;101065.22;5024825;28;20829;-82
2021/11/17 08:54:46;;;;;;;0.20;0.20;;;;;;;3.35;100.00;101047.31;5021699;28;20112;-81
2021/11/17 08:57:20;;;;;;;0.20;0.20;;;;;;;3.41;100.00;101043.72;5025275;28;20063;-80
2021/11/17 08:59:52;;;;;;;0.20;0.20;;;;;;;3.55;100.00;101052.50;5028905;28;20068;-83
2021/11/17 09:02:21;;;;;;;0.20;0.20;;;;;;;3.54;100.00;101048.97;5021353;28;20061;-83
2021/11/17 09:04:50;;;;;;;0.20;0.20;;;;;;;3.52;100.00;101056.44;5025052;28;20052;-83
2021/11/17 09:07:23;;;;;;;0.20;0.20;;;;;;;3.56;100.00;101062.19;5034973;28;20052;-84
2021/11/17 09:09:57;;;;;;;0.20;0.20;;;;;;;3.57;100.00;101061.16;5022565;28;20704;-82
2021/11/17 09:12:30;;;;;;;0.20;0.20;;;;;;;3.52;100.00;101080.66;5023791;28;20052;-82
2021/11/17 09:15:00;;;;;;;0.25;0.25;;;;;;;3.67;100.00;101064.13;5026544;28;20076;-81
2021/11/17 09:17:33;;;;;;;0.28;0.28;;;;;;;3.56;100.00;101063.03;5029262;28;20064;-82
2021/11/17 09:20:08;;;;;;;0.20;0.20;;;;;;;3.58;100.00;101066.31;5025185;28;20825;-81
2021/11/17 09:22:42;;;;;;;0.20;0.20;;;;;;;3.58;100.00;101066.31;5027213;28;20056;-84
2021/11/17 09:25:17;;;;;;;0.20;0.20;;;;;;;3.67;100.00;101066.81;5028864;28;20064;-83
2021/11/17 09:27:51;;;;;;;0.20;0.20;;;;;;;3.70;100.00;101062.84;5021769;28;20041;-83
2021/11/17 09:30:24;;;;;;;0.20;0.20;;;;;;;3.69;100.00;101072.00;5027645;28;20084;-81
2021/11/17 09:33:00;;;;;;;0.20;0.20;;;;;;;3.68;100.00;101070.34;5023950;28;20065;-81
2021/11/17 09:35:34;;;;;;;0.20;0.20;;;;;;;3.75;100.00;101071.09;5025052;28;20040;-82
2021/11/17 09:38:10;;;;;;;0.20;0.20;;;;;;;3.76;100.00;101072.75;5032011;28;20056;-83
2021/11/17 09:40:47;;;;;;;0.30;0.30;;;;;;;3.73;100.00;101063.25;5024103;28;20057;-82
2021/11/17 09:43:22;;;;;;;;;;;;;;;3.80;100.00;101059.63;5029152;28;20669;-82
2021/11/17 09:45:59;;;;;;;0.20;0.20;;;;;;;3.78;100.00;101056.38;5020781;28;19935;-82
2021/11/17 09:48:37;;;;;;;0.30;0.30;;;;;;;3.80;100.00;101046.19;5029290;28;20068;-81
2021/11/17 09:51:13;;;;;;;0.20;0.20;;;;;;;3.77;100.00;101054.72;5016396;28;20053;-81
2021/11/17 09:53:49;;;;;;;0.25;0.25;;;;;;;3.98;100.00;101045.34;5026391;28;20063;-81
2021/11/17 09:56:21;;;;;;;0.20;0.20;;;;;;;3.98;100.00;101048.88;5022343;28;20053;-82
2021/11/17 09:59:00;;;;;;;0.20;0.20;;;;;;;3.90;100.00;101039.22;5018101;28;20061;-84
2021/11/17 10:01:38;;;;;;;0.20;0.20;;;;;;;3.92;100.00;101044.38;5028054;28;20053;-82
2021/11/17 10:04:14;;;;;;;0.20;0.20;;;;;;;3.90;100.00;101049.19;5030256;28;20049;-82
2021/11/17 10:10:13;;;;;;;0.30;0.30;;;;;;;3.82;100.00;101028.75;5024350;28;20060;-82
2021/11/17 10:12:59;;;;;;;0.20;0.20;;;;;;;3.96;100.00;101026.72;5032567;28;22646;-82
2021/11/17 10:15:36;;;;;;;0.20;0.20;;;;;;;3.95;100.00;101030.47;5029899;28;20060;-81
2021/11/17 10:18:36;;;;;;;0.30;0.30;;;;;;;4.02;100.00;101024.97;5027812;28;20103;-83
2021/11/17 10:21:15;;;;;;;0.20;0.20;;;;;;;4.02;100.00;101027.66;5031448;28;20064;-81
2021/11/17 10:23:59;;;;;;;0.20;0.20;;;;;;;3.99;100.00;101020.91;5029284;28;20555;-80
2021/11/17 10:26:37;;;;;;;0.20;0.20;;;;;;;3.97;100.00;101022.16;5029864;28;20710;-81
2021/11/17 10:29:26;;;;;;;0.20;0.20;;;;;;;4.05;100.00;101025.34;5032283;28;20057;-80
2021/11/17 10:32:03;;;;;;;0.20;0.20;;;;;;;4.06;100.00;101021.63;5033416;28;20056;-80
2021/11/17 10:34:49;;;;;;;0.20;0.20;;;;;;;4.11;100.00;101017.44;5030691;28;20049;-80
2021/11/17 10:37:33;;;;;;;0.20;0.20;;;;;;;4.09;100.00;101013.09;5025444;28;20051;-81
2021/11/17 10:40:19;;;;;;;0.20;0.20;;;;;;;4.04;100.00;101014.81;5025939;28;20099;-81
2021/11/17 10:42:59;;;;;;;0.20;0.20;;;;;;;3.98;100.00;101011.16;5034035;28;20052;-82
2021/11/17 10:45:38;;;;;;;0.20;0.20;;;;;;;3.89;100.00;100996.38;5031280;28;20047;-80
2021/11/17 10:48:19;;;;;;;0.20;0.20;;;;;;;4.03;100.00;101002.41;5026584;28;20056;-81
2021/11/17 10:51:09;;;;;;;0.20;0.20;;;;;;;4.07;100.00;101000.88;5026626;28;20060;-81
2021/11/17 10:53:46;;;;;;;0.20;0.20;;;;;;;4.05;100.00;100997.63;5030698;28;20063;-79
2021/11/17 10:56:23;;;;;;;0.25;0.25;;;;;;;4.16;100.00;100993.31;5034907;28;20436;-80
2021/11/17 10:58:58;;;;;;;0.30;0.30;;;;;;;4.16;100.00;101001.41;5026969;28;20075;-80
2021/11/17 11:01:36;;;;;;;0.20;0.20;;;;;;;4.19;100.00;100995.56;5025768;28;20048;-80
2021/11/17 11:04:15;;;;;;;0.10;0.10;;;;;;;4.30;100.00;100989.38;5028061;28;20056;-82
2021/11/17 11:06:55;;;;;;;0.20;0.20;;;;;;;4.32;100.00;100992.66;5029079;28;20052;-80
2021/11/17 11:09:31;;;;;;;0.20;0.20;;;;;;;4.30;100.00;100992.06;5029321;28;21588;-81
2021/11/17 11:12:06;;;;;;;0.20;0.20;;;;;;;4.24;100.00;100987.63;5027094;28;20049;-81
2021/11/17 11:14:55;;;;;;;0.20;0.20;;;;;;;4.28;100.00;100987.97;4998896;27;20602;-80
2021/11/17 11:17:33;;;;;;;0.30;0.30;;;;;;;4.38;100.00;100988.22;5026846;28;20042;-81
2021/11/17 11:20:30;;;;;;;0.20;0.20;;;;;;;4.30;100.00;100985.88;5032053;28;20056;-80
2021/11/17 11:23:25;;;;;;;0.20;0.20;;;;;;;4.33;100.00;100982.72;5032010;28;21266;-81
2021/11/17 11:26:13;;;;;;;0.17;0.17;;;;;;;4.27;100.00;100981.75;5031465;28;20053;-81
2021/11/17 11:29:16;;;;;;;0.20;0.20;;;;;;;4.31;100.00;100998.25;5025734;28;20191;-82
2021/11/17 11:31:48;;;;;;;0.20;0.20;;;;;;;4.31;100.00;100995.56;5030111;28;20052;-82
2021/11/17 11:34:44;;;;;;;0.20;0.20;;;;;;;4.35;100.00;100994.91;5026269;28;20459;-82
2021/11/17 11:37:55;;;;;;;0.20;0.20;;;;;;;4.40;100.00;101000.41;5028870;28;20140;-82
2021/11/17 11:40:45;;;;;;;0.20;0.20;;;;;;;4.35;100.00;101005.69;5025893;28;20057;-83
2021/11/17 11:43:23;;;;;;;0.20;0.20;;;;;;;4.42;100.00;100989.41;5032651;28;20143;-84
2021/11/17 11:45:53;;;;;;;0.15;0.15;;;;;;;4.50;100.00;101002.56;5025368;28;22258;-81
2021/11/17 11:48:59;;;;;;;0.20;0.20;;;;;;;4.65;100.00;100998.59;5032073;28;20049;-82
2021/11/17 11:52:06;;;;;;;0.20;0.20;;;;;;;4.57;100.00;100983.56;5026386;28;20064;-81
2021/11/17 11:54:57;;;;;;;0.20;0.20;;;;;;;4.56;100.00;100993.53;5029159;28;20072;-83
2021/11/17 11:57:34;;;;;;;0.20;0.20;;;;;;;4.63;100.00;100988.03;5027740;28;20045;-81
2021/11/17 12:00:08;;;;;;;0.15;0.15;;;;;;;4.64;100.00;100987.00;5044855;28;20832;-82
2021/11/17 12:02:47;;;;;;;0.20;0.20;;;;;;;4.68;100.00;100980.09;5028008;28;20057;-81
2021/11/17 12:05:37;;;;;;;0.20;0.20;;;;;;;4.72;100.00;100983.13;5025118;28;20056;-81
2021/11/17 12:08:13;;;;;;;0.20;0.20;;;;;;;4.67;100.00;100975.72;5029848;28;20996;-81
2021/11/17 12:10:57;;;;;;;0.20;0.20;;;;;;;4.71;100.00;100985.00;5029073;28;20052;-80
2021/11/17 12:13:32;;;;;;;0.20;0.20;;;;;;;4.76;100.00;100979.72;5033922;28;20057;-81
2021/11/17 12:16:08;;;;;;;0.20;0.20;;;;;;;4.80;100.00;100963.88;4999590;28;20052;-81
2021/11/17 12:18:48;;;;;;;0.20;0.20;;;;;;;4.89;100.00;100965.19;5029109;28;20053;-81
2021/11/17 12:21:26;;;;;;;0.20;0.20;;;;;;;4.92;100.00;100961.22;5027553;28;20064;-81
2021/11/17 12:24:07;;;;;;;0.20;0.20;;;;;;;4.97;100.00;100950.50;5025240;28;20071;-81
2021/11/17 12:26:37;;;;;;;0.20;0.20;;;;;;;4.94;100.00;100949.13;5029634;28;20059;-80
2021/11/17 12:29:14;;;;;;;0.30;0.30;;;;;;;4.97;100.00;100952.41;5026909;28;20493;-81
2021/11/17 12:31:55;;;;;;;0.30;0.30;;;;;;;5.05;100.00;100955.56;5026186;28;20053;-83
2021/11/17 12:34:40;;;;;;;0.22;0.22;;;;;;;5.10;100.00;100950.28;5029505;28;20049;-82
2021/11/17 12:37:18;;;;;;;0.20;0.20;;;;;;;5.15;100.00;100949.59;5034646;28;20064;-83
2021/11/17 12:39:55;;;;;;;0.20;0.20;;;;;;;5.23;100.00;100935.72;5032848;28;20068;-80
2021/11/17 12:42:32;;;;;;;0.20;0.20;;;;;;;5.32;100.00;100927.22;5032891;28;20060;-82
2021/11/17 12:45:21;;;;;;;0.30;0.30;;;;;;;5.35;100.00;100940.28;5032085;28;20776;-81
2021/11/17 12:47:58;;;;;;;0.20;0.20;;;;;;;5.38;100.00;100931.69;5036820;28;20064;-81
2021/11/17 12:50:31;;;;;;;0.20;0.20;;;;;;;5.43;100.00;100929.09;5033402;28;20068;-82
2021/11/17 12:53:09;;;;;;;0.30;0.30;;;;;;;5.38;100.00;100921.72;5032046;28;20052;-81
2021/11/17 12:55:46;;;;;;;0.22;0.22;;;;;;;5.39;100.00;100926.06;5035279;28;20045;-82
2021/11/17 12:58:22;;;;;;;0.30;0.30;;;;;;;5.43;100.00;100931.81;5033732;28;20056;-81
2021/11/17 13:00:59;;;;;;;0.30;0.30;;;;;;;5.66;100.00;100940.88;5030852;28;20504;-83
2021/11/17 13:03:36;;;;;;;0.22;0.22;;;;;;;5.62;100.00;100943.22;5032394;28;20433;-83
2021/11/17 13:06:20;;;;;;;0.20;0.20;;;;;;;5.66;100.00;100963.28;5037602;28;20048;-82
2021/11/17 13:09:11;;;;;;;0.13;0.13;;;;;;;5.61;100.00;100934.31;5032295;28;20063;-83
2021/11/17 13:12:19;;;;;;;0.20;0.20;;;;;;;5.65;100.00;100947.31;5032986;28;20062;-81
2021/11/17 13:15:21;;;;;;;0.20;0.20;;;;;;;5.67;100.00;100954.13;5003944;27;20060;-82
2021/11/17 13:17:54;;;;;;;0.20;0.20;;;;;;;5.68;100.00;100942.28;5028464;28;20132;-84
2021/11/17 13:20:40;;;;;;;0.30;0.30;;;;;;;5.72;100.00;100951.53;5032120;28;20057;-85
2021/11/17 13:23:31;;;;;;;0.20;0.20;;;;;;;5.82;100.00;100959.00;5033948;28;20052;-82
2021/11/17 13:26:21;;;;;;;0.20;0.20;;;;;;;5.86;100.00;100949.38;5031564;28;20064;-82
2021/11/17 13:28:55;;;;;;;0.20;0.20;;;;;;;5.53;100.00;100923.91;5027529;28;20512;-83
2021/11/17 13:31:33;;;;;;;0.20;0.20;;;;;;;5.78;100.00;100958.66;5029466;28;20053;-82
2021/11/17 13:34:09;;;;;;;0.30;0.30;;;;;;;5.91;100.00;100962.97;5029339;28;20719;-82
2021/11/17 13:36:44;;;;;;;0.20;0.20;;;;;;;5.89;100.00;100961.56;5030369;28;20057;-82
2021/11/17 13:39:20;;;;;;;0.28;0.28;;;;;;;5.92;100.00;100970.03;5034458;28;20045;-82
2021/11/17 13:41:53;;;;;;;0.20;0.20;;;;;;;5.93;100.00;100968.13;5036009;28;20600;-82
2021/11/17 13:44:27;;;;;;;0.20;0.20;;;;;;;5.86;100.00;100972.88;5032186;28;20147;-82
2021/11/17 13:46:59;;;;;;;0.30;0.30;;;;;;;5.89;100.00;100978.59;5031418;28;20064;-82
2021/11/17 13:49:33;;;;;;;;;;;;;;;5.97;100.00;100977.41;5033198;28;20048;-82
2021/11/17 13:52:09;;;;;;;0.20;0.20;;;;;;;5.87;100.00;100972.63;5030380;28;19936;-82
2021/11/17 13:54:42;;;;;;;0.20;0.20;;;;;;;5.91;100.00;100973.78;5033837;28;20060;-82
2021/11/17 13:57:18;;;;;;;0.20;0.20;;;;;;;5.83;100.00;100968.75;5028607;28;20057;-82
2021/11/17 13:59:51;;;;;;;0.30;0.30;;;;;;;5.93;100.00;100971.66;5030283;28;20061;-82
2021/11/17 14:02:20;;;;;;;0.20;0.20;;;;;;;5.99;100.00;100977.19;5030516;28;20045;-82
2021/11/17 14:04:53;;;;;;;0.20;0.20;;;;;;;5.90;100.00;100976.72;5031236;28;20053;-86
2021/11/17 14:07:26;;;;;;;0.20;0.20;;;;;;;6.00;100.00;100987.75;5031802;28;20833;-82
2021/11/17 14:10:00;;;;;;;0.30;0.30;;;;;;;6.07;100.00;100987.59;5030243;28;20057;-82
2021/11/17 14:12:36;;;;;;;0.20;0.20;;;;;;;6.02;100.00;100980.22;5032372;28;20053;-82
2021/11/17 14:15:10;;;;;;;0.30;0.30;;;;;;;6.02;100.00;100996.44;5005533;28;20058;-83
2021/11/17 14:17:39;;;;;;;0.20;0.20;;;;;;;5.98;100.00;100997.97;5031891;28;20072;-83
2021/11/17 14:20:12;;;;;;;0.20;0.20;;;;;;;5.99;100.00;100998.78;5032150;28;20057;-84
2021/11/17 14:22:47;;;;;;;0.30;0.30;;;;;;;6.07;100.00;100999.22;5029755;28;20545;-83
2021/11/17 14:25:23;;;;;;;0.22;0.22;;;;;;;6.15;100.00;101003.44;5030143;28;20064;-83
2021/11/17 14:28:01;;;;;;;0.20;0.20;;;;;;;6.07;100.00;101004.63;5031664;28;20057;-82
2021/11/17 14:30:41;;;;;;;0.20;0.20;;;;;;;6.10;100.00;101000.63;5035941;28;20068;-81
2021/11/17 14:33:18;;;;;;;0.28;0.28;;;;;;;6.21;100.00;101012.44;5034055;28;20064;-82
2021/11/17 14:35:52;;;;;;;0.30;0.30;;;;;;;6.23;100.00;101002.22;5033342;28;20076;-82
2021/11/17 14:38:26;;;;;;;0.20;0.20;;;;;;;6.18;100.00;101005.63;5028416;28;20053;-82
2021/11/17 14:40:55;;;;;;;0.30;0.30;;;;;;;6.15;100.00;101003.44;5029348;28;20057;-81
2021/11/17 14:43:30;;;;;;;0.20;0.20;;;;;;;6.20;100.00;101010.78;5031155;28;20045;-82
2021/11/17 14:46:04;;;;;;;0.20;0.20;;;;;;;6.13;100.00;101002.81;5030767;28;20057;-82
2021/11/17 14:48:37;;;;;;;0.20;0.20;;;;;;;6.17;100.00;101001.28;5030431;28;20052;-82
2021/11/17 14:51:13;;;;;;;0.20;0.20;;;;;;;6.08;100.00;100983.84;5033857;28;20061;-83
2021/11/17 14:53:43;;;;;;;0.20;0.20;;;;;;;6.06;100.00;101000.31;5030132;28;20052;-81
2021/11/17 14:56:17;;;;;;;0.20;0.20;;;;;;;6.15;100.00;101008.03;5030901;28;20053;-82
2021/11/17 14:58:53;;;;;;;0.30;0.30;;;;;;;6.23;100.00;101004.94;5037293;28;20076;-82
2021/11/17 15:01:29;;;;;;;0.30;0.30;;;;;;;6.07;100.00;100993.81;5031652;28;20060;-82